| time (UTC) | temp C | wind direction | speed KPH | gust KPH | rain 1hr cm | rain 24hr cm | rain mn cm | humidity % | barometer mb |
| 20260507140210 | 16 | 336 | 12.9 | 0.0 | 0.00 | 0.00 | 0.18 | 59 | 1013.1 |
| 20260507133210 | 16 | 261 | 17.7 | 0.0 | 0.00 | 0.00 | 0.18 | 63 | 1013.3 |
| 20260507130210 | 15 | 317 | 12.9 | 0.0 | 0.00 | 0.00 | 0.18 | 68 | 1013.4 |
| 20260507123210 | 14 | 302 | 11.3 | 0.0 | 0.00 | 0.00 | 0.15 | 72 | 1013.4 |
| 20260507120211 | 14 | 265 | 12.9 | 0.0 | 0.00 | 0.00 | 0.15 | 73 | 1013.4 |
| 20260507113210 | 13 | 272 | 9.7 | 0.0 | 0.00 | 0.00 | 0.15 | 79 | 1013.5 |
| 20260507110210 | 12 | 225 | 9.7 | 0.0 | 0.00 | 0.00 | 0.15 | 83 | 1013.8 |
| 20260507103216 | 12 | 285 | 12.9 | 0.0 | 0.00 | 0.00 | 0.15 | 83 | 1013.9 |
| 20260507100212 | 11 | 254 | 11.3 | 0.0 | 0.00 | 0.00 | 0.15 | 87 | 1013.9 |
| 20260507093211 | 11 | 281 | 12.9 | 0.0 | 0.00 | 0.00 | 0.15 | 91 | 1013.9 |
| 20260507090211 | 10 | 264 | 11.3 | 0.0 | 0.00 | 0.00 | 0.15 | 93 | 1013.7 |
| 20260507083212 | 10 | 247 | 12.9 | 0.0 | 0.00 | 0.00 | 0.15 | 94 | 1013.6 |
| 20260507080211 | 9 | 293 | 14.5 | 0.0 | 0.00 | 0.00 | 0.15 | 94 | 1013.4 |
| 20260507073212 | 9 | 196 | 11.3 | 0.0 | 0.00 | 0.00 | 0.15 | 95 | 1013.3 |
| 20260507070212 | 8 | 223 | 6.4 | 0.0 | 0.00 | 0.00 | 0.15 | 95 | 1013.1 |
| 20260507063211 | 8 | 202 | 12.9 | 0.0 | 0.00 | 0.00 | 0.15 | 94 | 1012.9 |
| 20260507060211 | 8 | 202 | 11.3 | 0.0 | 0.00 | 0.00 | 0.10 | 94 | 1012.6 |
| 20260507053211 | 8 | 243 | 12.9 | 0.0 | 0.00 | 0.00 | 0.05 | 94 | 1012.3 |
| 20260507050213 | 8 | 236 | 8.0 | 0.0 | 0.00 | 0.00 | 0.03 | 94 | 1012.0 |
| 20260507043211 | 8 | 243 | 4.8 | 0.0 | 0.00 | 0.00 | 0.00 | 94 | 1011.6 |
| 20260507040216 | 8 | 212 | 1.6 | 0.0 | 0.00 | 0.00 | 0.00 | 94 | 1011.3 |
| 20260507033211 | 8 | 161 | 0.0 | 0.0 | 0.00 | 0.00 | 0.00 | 94 | 1011.1 |
| 20260507030211 | 8 | 161 | 0.0 | 0.0 | 0.00 | 0.00 | 0.00 | 95 | 1011.0 |
| 20260507023211 | 8 | 231 | 0.0 | 0.0 | 0.00 | 0.00 | 0.00 | 94 | 1011.0 |
| 20260507020211 | 7 | 209 | 0.0 | 0.0 | 0.00 | 0.00 | 0.00 | 94 | 1010.9 |
| 20260507013212 | 7 | 209 | 0.0 | 0.0 | 0.00 | 0.00 | 0.00 | 94 | 1010.6 |
| 20260507010211 | 7 | 209 | 0.0 | 0.0 | 0.00 | 0.00 | 0.00 | 94 | 1010.6 |
| 20260507003209 | 7 | 209 | 0.0 | 0.0 | 0.00 | 0.00 | 0.00 | 94 | 1010.3 |
| 20260507000209 | 7 | 209 | 0.0 | 0.0 | 0.00 | 0.00 | 0.00 | 93 | 1010.4 |
| 20260506233209 | 7 | 209 | 0.0 | 0.0 | 0.00 | 0.00 | 0.00 | 93 | 1010.4 |
| 20260506230209 | 8 | 209 | 0.0 | 0.0 | 0.00 | 0.00 | 0.00 | 93 | 1010.3 |
| 20260506223209 | 8 | 209 | 0.0 | 0.0 | 0.00 | 0.00 | 0.00 | 92 | 1010.2 |
| 20260506213209 | 8 | 209 | 0.0 | 0.0 | 0.00 | 0.00 | 0.05 | 92 | 1010.1 |
| 20260506210210 | 8 | 221 | 0.0 | 0.0 | 0.00 | 0.00 | 0.05 | 92 | 1009.9 |
| 20260506203210 | 9 | 221 | 0.0 | 0.0 | 0.00 | 0.00 | 0.05 | 91 | 1009.6 |
| 20260506200210 | 9 | 227 | 3.2 | 0.0 | 0.00 | 0.00 | 0.05 | 91 | 1009.6 |
| 20260506193215 | 10 | 214 | 6.4 | 0.0 | 0.00 | 0.00 | 0.05 | 91 | 1009.2 |
| 20260506190211 | 10 | 219 | 6.4 | 0.0 | 0.00 | 0.00 | 0.05 | 91 | 1008.7 |
| 20260506183209 | 10 | 261 | 12.9 | 0.0 | 0.00 | 0.00 | 0.05 | 91 | 1008.2 |
| 20260506180216 | 10 | 252 | 11.3 | 0.0 | 0.00 | 0.00 | 0.05 | 92 | 1008.2 |
| 20260506173210 | 10 | 218 | 6.4 | 0.0 | 0.00 | 0.00 | 0.05 | 92 | 1008.0 |
| 20260506170215 | 10 | 220 | 9.7 | 0.0 | 0.00 | 0.00 | 0.05 | 92 | 1007.6 |
| 20260506163210 | 10 | 230 | 4.8 | 0.0 | 0.00 | 0.00 | 0.05 | 92 | 1007.2 |
| 20260506160210 | 10 | 241 | 16.1 | 0.0 | 0.00 | 0.00 | 0.03 | 92 | 1007.6 |
| 20260506153210 | 10 | 269 | 19.3 | 0.0 | 0.00 | 0.00 | 0.00 | 91 | 1007.2 |
| 20260506150210 | 10 | 288 | 24.1 | 0.0 | 0.00 | 0.00 | 0.00 | 90 | 1007.2 |
| 20260506143210 | 11 | 265 | 40.2 | 0.0 | 0.00 | 0.00 | 0.00 | 82 | 1006.6 |